createdAt,value
2019-03-23T00:00:36.533Z,9.10
2019-03-23T00:03:07.260Z,9.00
2019-03-23T00:05:38.008Z,9.00
2019-03-23T00:08:08.637Z,9.30
2019-03-23T00:10:39.193Z,9.30
2019-03-23T00:13:09.802Z,9.30
2019-03-23T00:15:40.469Z,9.30
2019-03-23T00:18:11.135Z,9.10
2019-03-23T00:20:41.869Z,9.10
2019-03-23T00:23:12.455Z,9.10
2019-03-23T00:25:44.711Z,9.10
2019-03-23T00:28:16.240Z,8.60
2019-03-23T00:30:46.898Z,8.40
2019-03-23T00:33:17.420Z,8.20
2019-03-23T00:35:47.902Z,7.90
2019-03-23T00:38:18.561Z,7.70
2019-03-23T00:40:49.293Z,7.60
2019-03-23T00:43:19.887Z,7.70
2019-03-23T00:45:50.394Z,7.80
2019-03-23T00:48:22.002Z,7.90
2019-03-23T00:50:52.543Z,8.10
2019-03-23T00:53:23.120Z,7.90
2019-03-23T00:55:53.656Z,7.70
2019-03-23T00:58:24.344Z,7.80
2019-03-23T01:00:55.091Z,8.00
2019-03-23T01:03:25.571Z,8.00
2019-03-23T01:05:56.177Z,8.10
2019-03-23T01:08:26.844Z,8.20
2019-03-23T01:10:57.302Z,8.60
2019-03-23T01:13:27.970Z,8.60
2019-03-23T01:15:58.557Z,8.60
2019-03-23T01:18:29.176Z,8.70
2019-03-23T01:20:59.821Z,8.80
2019-03-23T01:23:30.463Z,8.50
2019-03-23T01:26:01.117Z,8.50
2019-03-23T01:28:31.816Z,8.50
2019-03-23T01:31:02.504Z,8.60
2019-03-23T01:33:33.026Z,8.60
2019-03-23T01:36:03.669Z,8.60
2019-03-23T01:38:34.386Z,8.80
2019-03-23T01:41:05.033Z,8.70
2019-03-23T01:43:35.555Z,8.50
2019-03-23T01:46:06.226Z,8.50
2019-03-23T01:48:36.792Z,8.70
2019-03-23T01:51:07.377Z,9.00
2019-03-23T01:53:38.306Z,9.10
2019-03-23T01:56:08.924Z,9.10
2019-03-23T01:58:39.767Z,9.10
2019-03-23T02:01:10.429Z,9.20
2019-03-23T02:03:41.119Z,9.20
2019-03-23T02:06:11.595Z,9.20
2019-03-23T02:08:42.350Z,9.10
2019-03-23T02:11:13.053Z,9.10
2019-03-23T02:13:43.667Z,9.00
2019-03-23T02:16:14.304Z,8.80
2019-03-23T02:18:45.003Z,8.70
2019-03-23T02:21:15.510Z,8.70
2019-03-23T02:23:46.006Z,8.60
2019-03-23T02:26:16.655Z,8.60
2019-03-23T02:28:47.164Z,8.50
2019-03-23T02:31:17.597Z,8.50
2019-03-23T02:33:48.313Z,8.40
2019-03-23T02:36:19.800Z,8.30
2019-03-23T02:38:50.470Z,8.30
2019-03-23T02:41:21.524Z,8.20
2019-03-23T02:43:52.072Z,8.20
2019-03-23T02:46:22.657Z,8.20
2019-03-23T02:48:53.334Z,8.30
2019-03-23T02:51:24.036Z,8.20
2019-03-23T02:53:54.683Z,8.10
2019-03-23T02:56:25.329Z,8.10
2019-03-23T02:58:55.946Z,8.00
2019-03-23T03:01:27.382Z,8.00
2019-03-23T03:03:57.871Z,7.90
2019-03-23T03:06:28.318Z,7.80
2019-03-23T03:08:59.099Z,7.60
2019-03-23T03:11:29.777Z,7.10
2019-03-23T03:14:00.246Z,6.80
2019-03-23T03:16:30.943Z,6.70
2019-03-23T03:19:01.681Z,6.60
2019-03-23T03:21:32.325Z,6.70
2019-03-23T03:24:02.867Z,6.60
2019-03-23T03:26:33.391Z,6.60
2019-03-23T03:29:04.502Z,6.50
2019-03-23T03:31:35.109Z,6.50
2019-03-23T03:34:05.630Z,6.50
2019-03-23T03:36:36.114Z,6.60
2019-03-23T03:39:09.012Z,6.50
2019-03-23T03:41:39.895Z,6.50
2019-03-23T03:44:11.012Z,6.60
2019-03-23T03:46:41.831Z,6.90
2019-03-23T03:49:13.112Z,6.80
2019-03-23T03:51:44.249Z,6.80
2019-03-23T03:54:33.460Z,7.20
2019-03-23T03:57:04.316Z,7.30
2019-03-23T03:59:35.073Z,7.20
2019-03-23T04:02:05.740Z,7.20
2019-03-23T04:04:36.593Z,7.20
2019-03-23T04:07:07.195Z,7.20
2019-03-23T04:09:40.341Z,7.20
2019-03-23T04:12:10.302Z,7.20
2019-03-23T04:14:40.893Z,7.30
2019-03-23T04:17:11.636Z,7.10
2019-03-23T04:19:42.268Z,7.00
2019-03-23T04:22:13.043Z,7.00
2019-03-23T04:24:44.340Z,7.00
2019-03-23T04:27:15.741Z,6.90
2019-03-23T04:29:49.336Z,7.00
2019-03-23T04:32:21.741Z,7.00
2019-03-23T04:34:53.580Z,7.10
2019-03-23T04:37:25.721Z,7.20
2019-03-23T04:39:57.214Z,7.30
2019-03-23T04:42:28.659Z,7.40
2019-03-23T04:44:59.747Z,7.40
2019-03-23T04:47:30.808Z,7.40
2019-03-23T04:50:01.556Z,7.40
2019-03-23T04:52:32.289Z,7.30
2019-03-23T04:55:04.334Z,7.20
2019-03-23T04:57:35.366Z,7.20
2019-03-23T05:00:07.185Z,7.30
2019-03-23T05:02:38.067Z,7.30
2019-03-23T05:05:08.983Z,7.20
2019-03-23T05:07:40.084Z,7.10
2019-03-23T05:10:11.968Z,7.20
2019-03-23T05:12:42.872Z,7.30
2019-03-23T05:15:13.927Z,7.10
2019-03-23T05:17:44.884Z,7.00
2019-03-23T05:20:27.898Z,6.90
2019-03-23T05:22:58.921Z,7.00
2019-03-23T05:25:30.305Z,6.80
2019-03-23T05:28:00.892Z,6.90
2019-03-23T05:30:31.397Z,6.90
2019-03-23T05:33:01.849Z,6.90
2019-03-23T05:35:32.309Z,7.00
2019-03-23T05:38:02.890Z,7.00
2019-03-23T05:40:33.383Z,7.00
2019-03-23T05:43:03.890Z,6.90
2019-03-23T05:45:34.307Z,7.00
2019-03-23T05:48:06.015Z,7.10
2019-03-23T05:50:36.584Z,7.10
2019-03-23T05:53:07.040Z,6.90
2019-03-23T05:55:37.611Z,6.80
2019-03-23T05:58:08.412Z,6.80
2019-03-23T06:00:38.832Z,6.80
2019-03-23T06:03:09.277Z,6.80
2019-03-23T06:05:39.790Z,6.80
2019-03-23T06:08:11.286Z,6.70
2019-03-23T06:10:41.818Z,6.60
2019-03-23T06:13:12.309Z,6.70
2019-03-23T06:15:42.812Z,6.90
2019-03-23T06:18:13.704Z,7.10
2019-03-23T06:21:03.077Z,7.10
2019-03-23T06:23:33.996Z,7.10
2019-03-23T06:26:06.421Z,7.00
2019-03-23T06:28:37.667Z,7.00
2019-03-23T06:31:08.494Z,7.10
2019-03-23T06:33:39.336Z,7.10
2019-03-23T06:36:10.007Z,7.20
2019-03-23T06:38:40.899Z,7.10
2019-03-23T06:41:11.835Z,7.10
2019-03-23T06:43:42.584Z,7.30
2019-03-23T06:46:13.272Z,7.30
2019-03-23T06:48:44.172Z,7.30
2019-03-23T06:51:14.954Z,7.30
2019-03-23T06:53:46.071Z,7.40
2019-03-23T06:56:17.059Z,7.40
2019-03-23T06:58:47.506Z,7.50
2019-03-23T07:01:17.967Z,7.60
2019-03-23T07:03:48.533Z,7.60
2019-03-23T07:06:18.971Z,7.70
2019-03-23T07:08:49.912Z,7.80
2019-03-23T07:11:20.388Z,7.80
2019-03-23T07:13:50.844Z,7.90
2019-03-23T07:16:21.272Z,8.00
2019-03-23T07:18:51.775Z,8.10
2019-03-23T07:21:26.892Z,8.20
2019-03-23T07:23:57.905Z,8.20
2019-03-23T07:26:28.393Z,8.30
2019-03-23T07:28:58.907Z,8.30
2019-03-23T07:31:29.366Z,8.50
2019-03-23T07:33:59.812Z,8.60
2019-03-23T07:36:30.236Z,8.60
2019-03-23T07:39:00.708Z,8.60
2019-03-23T07:41:31.173Z,8.70
2019-03-23T07:44:01.620Z,8.80
2019-03-23T07:46:32.083Z,8.80
2019-03-23T07:49:03.196Z,8.90
2019-03-23T07:51:34.027Z,8.90
2019-03-23T07:54:04.556Z,9.00
2019-03-23T07:56:35.597Z,9.20
2019-03-23T07:59:06.127Z,9.10
2019-03-23T08:01:36.620Z,9.20
2019-03-23T08:04:07.117Z,9.20
2019-03-23T08:06:37.591Z,9.30
2019-03-23T08:09:08.616Z,9.30
2019-03-23T08:11:39.055Z,9.30
2019-03-23T08:14:09.588Z,9.30
2019-03-23T08:16:39.990Z,9.50
2019-03-23T08:19:10.519Z,9.70
2019-03-23T08:21:40.923Z,9.70
2019-03-23T08:24:11.521Z,9.70
2019-03-23T08:26:42.118Z,9.90
2019-03-23T08:29:12.627Z,10.20
2019-03-23T08:31:43.067Z,10.30
2019-03-23T08:34:13.542Z,10.30
2019-03-23T08:36:43.961Z,10.50
2019-03-23T08:39:14.427Z,10.70
2019-03-23T08:41:44.920Z,10.70
2019-03-23T08:44:15.447Z,11.10
2019-03-23T08:46:46.383Z,11.20
2019-03-23T08:49:16.954Z,11.10
2019-03-23T08:51:47.452Z,11.30
2019-03-23T08:54:17.927Z,11.30
2019-03-23T08:56:48.417Z,11.40
2019-03-23T08:59:20.808Z,11.30
2019-03-23T09:01:51.254Z,11.50
2019-03-23T09:04:21.786Z,11.50
2019-03-23T09:06:52.472Z,11.90
2019-03-23T09:09:22.922Z,12.20
2019-03-23T09:11:53.401Z,12.30
2019-03-23T09:14:23.949Z,12.10
2019-03-23T09:16:54.412Z,12.30
2019-03-23T09:19:25.455Z,12.50
2019-03-23T09:21:55.932Z,12.60
2019-03-23T09:24:26.544Z,12.70
2019-03-23T09:26:58.899Z,12.80
2019-03-23T09:29:29.427Z,12.70
2019-03-23T09:32:00.073Z,13.00
2019-03-23T09:34:30.471Z,13.10
2019-03-23T09:37:01.043Z,12.90
2019-03-23T09:39:31.559Z,13.00
2019-03-23T09:42:02.040Z,13.10
2019-03-23T09:44:32.465Z,13.40
2019-03-23T09:47:03.054Z,13.50
2019-03-23T09:49:33.623Z,13.50
2019-03-23T09:52:04.034Z,13.60
2019-03-23T09:54:34.600Z,13.90
2019-03-23T09:57:05.204Z,14.00
2019-03-23T09:59:35.674Z,14.20
2019-03-23T10:02:06.300Z,14.40
2019-03-23T10:04:36.692Z,14.40
2019-03-23T10:07:07.187Z,14.50
2019-03-23T10:09:37.640Z,14.60
2019-03-23T10:12:08.165Z,14.70
2019-03-23T10:14:38.672Z,14.80
2019-03-23T10:17:09.304Z,15.00
2019-03-23T10:19:39.810Z,15.20
2019-03-23T10:22:10.315Z,15.40
2019-03-23T10:24:40.848Z,15.20
2019-03-23T10:27:11.345Z,15.20
2019-03-23T10:29:41.791Z,15.60
2019-03-23T10:32:12.331Z,15.80
2019-03-23T10:34:42.775Z,16.00
2019-03-23T10:37:13.220Z,15.80
2019-03-23T10:39:43.640Z,15.90
2019-03-23T10:42:16.127Z,16.30
2019-03-23T10:44:46.160Z,15.90
2019-03-23T10:47:16.748Z,16.30
2019-03-23T10:49:47.334Z,16.50
2019-03-23T10:52:17.758Z,16.90
2019-03-23T10:54:48.208Z,16.70
2019-03-23T10:57:18.789Z,16.90
2019-03-23T10:59:49.355Z,17.20
2019-03-23T11:02:19.809Z,16.90
2019-03-23T11:04:50.270Z,16.80
2019-03-23T11:07:20.763Z,16.80
2019-03-23T11:09:51.182Z,16.80
2019-03-23T11:12:21.666Z,16.90
2019-03-23T11:14:52.420Z,17.00
2019-03-23T11:17:23.091Z,17.40
2019-03-23T11:19:53.555Z,17.40
2019-03-23T11:22:24.109Z,17.50
2019-03-23T11:24:54.622Z,17.50
2019-03-23T11:27:25.204Z,18.00
2019-03-23T11:29:55.626Z,18.00
2019-03-23T11:32:26.163Z,18.00
2019-03-23T11:34:56.579Z,17.70
2019-03-23T11:37:27.041Z,18.30
2019-03-23T11:39:57.639Z,19.10
2019-03-23T11:42:28.192Z,19.60
2019-03-23T11:44:58.752Z,19.40
2019-03-23T11:47:29.383Z,19.80
2019-03-23T11:49:59.851Z,21.60
2019-03-23T11:52:30.265Z,22.50
2019-03-23T11:55:00.921Z,23.40
2019-03-23T11:57:31.604Z,23.70
2019-03-23T12:00:02.085Z,24.20
2019-03-23T12:02:32.580Z,24.50
2019-03-23T12:05:03.042Z,23.30
2019-03-23T12:07:33.540Z,23.50
2019-03-23T12:10:04.171Z,23.70
2019-03-23T12:12:34.604Z,24.30
2019-03-23T12:15:05.254Z,25.20
2019-03-23T12:17:35.828Z,25.20
2019-03-23T12:20:06.739Z,23.80
2019-03-23T12:22:37.217Z,23.40
2019-03-23T12:25:08.000Z,23.70
2019-03-23T12:27:39.379Z,23.90
2019-03-23T12:30:11.854Z,24.60
2019-03-23T12:32:42.342Z,25.90
2019-03-23T12:35:13.102Z,26.70
2019-03-23T12:37:43.759Z,25.70
2019-03-23T12:40:14.763Z,26.20
2019-03-23T12:42:45.220Z,26.10
2019-03-23T12:45:15.751Z,25.10
2019-03-23T12:47:46.413Z,25.30
2019-03-23T12:50:16.989Z,24.60
2019-03-23T12:52:47.368Z,24.90
2019-03-23T12:55:17.967Z,24.80
2019-03-23T12:57:48.416Z,25.60
2019-03-23T13:00:19.132Z,26.10
2019-03-23T13:02:49.607Z,26.40
2019-03-23T13:05:20.184Z,25.30
2019-03-23T13:07:50.670Z,25.90
2019-03-23T13:10:21.095Z,26.70
2019-03-23T13:12:51.566Z,25.50
2019-03-23T13:15:22.082Z,26.10
2019-03-23T13:17:52.463Z,24.30
2019-03-23T13:20:22.966Z,24.60
2019-03-23T13:22:53.510Z,24.30
2019-03-23T13:25:24.031Z,24.70
2019-03-23T13:27:54.690Z,24.60
2019-03-23T13:30:25.197Z,24.90
2019-03-23T13:32:55.676Z,24.50
2019-03-23T13:35:26.155Z,25.10
2019-03-23T13:37:56.576Z,24.50
2019-03-23T13:40:27.008Z,23.90
2019-03-23T13:42:57.529Z,24.20
2019-03-23T13:45:27.923Z,24.40
2019-03-23T13:47:59.439Z,24.30
2019-03-23T13:50:30.608Z,24.50
2019-03-23T13:53:01.080Z,25.10
2019-03-23T13:55:33.303Z,25.10
2019-03-23T13:58:14.078Z,25.00
2019-03-23T14:00:44.762Z,25.40
2019-03-23T14:03:15.193Z,24.80
2019-03-23T14:05:45.810Z,25.60
2019-03-23T14:08:16.427Z,25.90
2019-03-23T14:10:47.047Z,25.30
2019-03-23T14:13:17.517Z,25.00
2019-03-23T14:15:48.251Z,24.60
2019-03-23T14:18:18.916Z,24.70
2019-03-23T14:20:49.439Z,24.70
2019-03-23T14:23:20.014Z,25.30
2019-03-23T14:25:50.642Z,25.10
2019-03-23T14:28:21.679Z,25.60
2019-03-23T14:30:55.896Z,26.00
2019-03-23T14:33:35.660Z,25.00
2019-03-23T14:36:06.638Z,25.00
2019-03-23T14:38:38.463Z,23.90
2019-03-23T14:41:09.246Z,23.90
2019-03-23T14:43:39.966Z,25.20
2019-03-23T14:46:10.892Z,25.50
2019-03-23T14:48:42.306Z,24.80
2019-03-23T14:51:13.395Z,24.20
2019-03-23T14:53:44.242Z,24.80
2019-03-23T14:56:14.994Z,24.80
2019-03-23T14:58:47.647Z,24.50
2019-03-23T15:01:18.605Z,24.40
2019-03-23T15:03:49.327Z,23.70
2019-03-23T15:06:20.023Z,23.00
2019-03-23T15:08:50.805Z,23.20
2019-03-23T15:11:21.588Z,22.20
2019-03-23T15:13:52.401Z,22.00
2019-03-23T15:16:23.189Z,22.50
2019-03-23T15:18:54.081Z,23.00
2019-03-23T15:21:24.766Z,23.10
2019-03-23T15:23:55.635Z,22.50
2019-03-23T15:26:27.545Z,22.80
2019-03-23T15:28:58.336Z,22.50
2019-03-23T15:31:29.573Z,22.10
2019-03-23T15:34:00.424Z,21.30
2019-03-23T15:36:31.258Z,21.30
2019-03-23T15:39:02.027Z,21.20
2019-03-23T15:41:32.808Z,20.60
2019-03-23T15:44:03.795Z,20.10
2019-03-23T15:46:34.839Z,19.50
2019-03-23T15:49:05.810Z,19.40
2019-03-23T15:51:36.564Z,19.40
2019-03-23T15:54:08.061Z,19.40
2019-03-23T15:56:38.918Z,19.40
2019-03-23T15:59:09.666Z,18.90
2019-03-23T16:01:40.851Z,18.80
2019-03-23T16:04:12.226Z,18.70
2019-03-23T16:06:43.095Z,18.60
2019-03-23T16:09:13.800Z,18.40
2019-03-23T16:11:44.775Z,18.40
2019-03-23T16:14:15.592Z,18.40
2019-03-23T16:16:46.487Z,18.30
2019-03-23T16:19:19.131Z,17.90
2019-03-23T16:21:50.020Z,18.10
2019-03-23T16:24:20.764Z,18.10
2019-03-23T16:26:52.411Z,18.10
2019-03-23T16:29:23.411Z,17.90
2019-03-23T16:31:54.449Z,17.80
2019-03-23T16:34:25.623Z,17.70
2019-03-23T16:36:57.290Z,17.80
2019-03-23T16:39:28.702Z,17.90
2019-03-23T16:41:59.752Z,17.70
2019-03-23T16:44:32.933Z,17.60
2019-03-23T16:47:04.394Z,17.50
2019-03-23T16:49:35.786Z,17.30
2019-03-23T16:52:07.580Z,17.20
2019-03-23T16:54:38.547Z,17.10
2019-03-23T16:57:09.636Z,17.00
2019-03-23T16:59:41.047Z,17.00
2019-03-23T17:02:12.702Z,16.80
2019-03-23T17:04:44.403Z,16.70
2019-03-23T17:07:16.065Z,16.70
2019-03-23T17:09:47.591Z,16.50
2019-03-23T17:12:19.867Z,16.60
2019-03-23T17:14:51.696Z,16.60
2019-03-23T17:17:23.915Z,16.40
2019-03-23T17:19:55.306Z,16.40
2019-03-23T17:22:28.246Z,16.10
2019-03-23T17:25:00.366Z,16.20
2019-03-23T17:27:31.563Z,16.30
2019-03-23T17:30:03.294Z,16.10
2019-03-23T17:32:34.601Z,15.80
2019-03-23T17:35:06.514Z,15.80
2019-03-23T17:37:38.311Z,15.50
2019-03-23T17:40:10.294Z,15.60
2019-03-23T17:42:41.855Z,15.50
2019-03-23T17:45:13.622Z,15.50
2019-03-23T17:47:45.269Z,15.30
2019-03-23T17:50:16.286Z,15.50
2019-03-23T17:52:47.035Z,15.10
2019-03-23T17:55:18.231Z,15.10
2019-03-23T17:57:50.076Z,15.00
2019-03-23T18:00:21.194Z,14.70
2019-03-23T18:02:52.296Z,14.60
2019-03-23T18:05:22.963Z,14.60
2019-03-23T18:07:53.785Z,14.70
2019-03-23T18:10:24.552Z,14.70
2019-03-23T18:12:55.396Z,14.80
2019-03-23T18:15:26.517Z,14.70
2019-03-23T18:17:57.538Z,15.20
2019-03-23T18:20:28.080Z,15.20
2019-03-23T18:22:59.322Z,15.40
2019-03-23T18:25:30.423Z,15.20
2019-03-23T18:28:02.509Z,14.90
2019-03-23T18:30:43.940Z,14.80
2019-03-23T18:33:15.192Z,14.90
2019-03-23T18:35:46.031Z,14.80
2019-03-23T18:38:16.710Z,14.80
2019-03-23T18:40:47.650Z,14.80
2019-03-23T18:43:27.029Z,14.90
2019-03-23T18:45:51.774Z,14.90
2019-03-23T18:48:23.249Z,14.60
2019-03-23T18:50:54.636Z,14.40
2019-03-23T18:53:27.229Z,14.50
2019-03-23T18:55:59.288Z,14.30
2019-03-23T18:58:31.421Z,14.10
2019-03-23T19:01:05.246Z,14.40
2019-03-23T19:03:36.183Z,14.50
2019-03-23T19:06:07.514Z,14.40
2019-03-23T19:08:41.295Z,14.00
2019-03-23T19:11:14.946Z,14.10
2019-03-23T19:13:47.835Z,14.10
2019-03-23T19:16:19.821Z,14.10
2019-03-23T19:18:51.245Z,14.00
2019-03-23T19:21:22.848Z,14.10
2019-03-23T19:23:56.183Z,14.00
2019-03-23T19:26:30.910Z,14.00
2019-03-23T19:29:09.344Z,14.00
2019-03-23T19:31:40.594Z,13.90
2019-03-23T19:34:12.542Z,13.80
2019-03-23T19:36:44.067Z,13.80
2019-03-23T19:39:15.957Z,13.20
2019-03-23T19:41:47.398Z,12.90
2019-03-23T19:44:19.532Z,13.00
2019-03-23T19:46:52.413Z,12.90
2019-03-23T19:49:23.934Z,13.00
2019-03-23T19:51:56.329Z,13.10
2019-03-23T19:54:28.828Z,13.00
2019-03-23T19:57:00.307Z,13.00
2019-03-23T19:59:32.920Z,13.00
2019-03-23T20:02:04.163Z,12.70
2019-03-23T20:04:35.509Z,12.50
2019-03-23T20:07:09.327Z,12.30
2019-03-23T20:09:41.151Z,12.30
2019-03-23T20:12:12.775Z,12.20
2019-03-23T20:14:44.942Z,12.20
2019-03-23T20:17:15.715Z,12.10
2019-03-23T20:19:46.509Z,11.90
2019-03-23T20:22:17.403Z,11.90
2019-03-23T20:24:48.305Z,11.90
2019-03-23T20:27:18.773Z,11.90
2019-03-23T20:29:49.364Z,12.00
2019-03-23T20:32:19.871Z,11.80
2019-03-23T20:34:50.431Z,11.70
2019-03-23T20:37:21.263Z,11.60
2019-03-23T20:39:52.027Z,11.50
2019-03-23T20:42:22.943Z,11.20
2019-03-23T20:44:54.503Z,11.00
2019-03-23T20:47:25.444Z,11.00
2019-03-23T20:49:56.483Z,11.00
2019-03-23T20:52:27.560Z,11.10
2019-03-23T20:54:58.579Z,11.00
2019-03-23T20:57:37.274Z,11.00
2019-03-23T21:00:01.941Z,10.90
2019-03-23T21:02:32.365Z,10.90
2019-03-23T21:05:02.753Z,10.90
2019-03-23T21:07:33.500Z,10.90
2019-03-23T21:10:04.543Z,10.90
2019-03-23T21:12:35.201Z,11.00
2019-03-23T21:15:06.239Z,11.00
2019-03-23T21:17:50.405Z,10.90
2019-03-23T21:20:10.636Z,10.90
2019-03-23T21:22:41.363Z,11.00
2019-03-23T21:25:12.199Z,11.00
2019-03-23T21:27:42.774Z,11.00
2019-03-23T21:30:14.901Z,11.00
2019-03-23T21:32:45.451Z,10.90
2019-03-23T21:35:16.133Z,10.90
2019-03-23T21:37:46.613Z,10.80
2019-03-23T21:40:17.162Z,10.80
2019-03-23T21:42:47.576Z,10.80
2019-03-23T21:45:18.074Z,10.70
2019-03-23T21:47:48.546Z,10.60
2019-03-23T21:50:21.693Z,10.50
2019-03-23T21:52:52.594Z,10.50
2019-03-23T21:55:23.376Z,10.50
2019-03-23T21:57:54.371Z,10.50
2019-03-23T22:00:32.629Z,10.60
2019-03-23T22:03:03.852Z,10.60
2019-03-23T22:05:34.615Z,10.50
2019-03-23T22:08:06.624Z,10.30
2019-03-23T22:10:37.670Z,10.20
2019-03-23T22:13:08.515Z,10.20
2019-03-23T22:15:39.339Z,10.20
2019-03-23T22:18:10.563Z,10.00
2019-03-23T22:20:40.954Z,10.00
2019-03-23T22:23:11.791Z,10.10
2019-03-23T22:25:42.615Z,10.00
2019-03-23T22:28:13.625Z,10.00
2019-03-23T22:30:44.948Z,9.90
2019-03-23T22:33:15.995Z,9.80
2019-03-23T22:35:46.744Z,9.90
2019-03-23T22:38:17.479Z,9.90
2019-03-23T22:40:48.387Z,10.00
2019-03-23T22:43:19.239Z,9.90
2019-03-23T22:45:49.940Z,9.80
2019-03-23T22:48:20.880Z,9.80
2019-03-23T22:50:51.661Z,9.80
2019-03-23T22:53:22.259Z,9.80
2019-03-23T22:56:11.459Z,9.80
2019-03-23T22:58:43.275Z,9.80
2019-03-23T23:01:14.157Z,10.00
2019-03-23T23:03:44.818Z,9.90
2019-03-23T23:06:15.582Z,9.70
2019-03-23T23:08:46.390Z,9.70
2019-03-23T23:11:17.239Z,9.50
2019-03-23T23:13:47.959Z,9.40
2019-03-23T23:16:18.867Z,9.40
2019-03-23T23:18:49.603Z,9.30
2019-03-23T23:21:20.287Z,9.10
2019-03-23T23:23:51.159Z,9.00
2019-03-23T23:26:22.007Z,9.00
2019-03-23T23:28:53.975Z,8.90
2019-03-23T23:31:24.739Z,8.90
2019-03-23T23:33:55.730Z,8.90
2019-03-23T23:36:26.514Z,8.90
2019-03-23T23:38:57.421Z,9.00
2019-03-23T23:41:28.195Z,8.90
2019-03-23T23:43:58.971Z,8.90
2019-03-23T23:46:29.677Z,8.90
2019-03-23T23:49:00.742Z,8.90
2019-03-23T23:51:31.499Z,9.00
2019-03-23T23:54:02.336Z,8.90
2019-03-23T23:56:33.234Z,8.80
2019-03-23T23:59:05.319Z,8.90
